Time;durP1;ratioP1;P1;durP2;ratioP2;P2;SDS_P1;SDS_P2;PMS_P1;PMS_P2;Temp;Humidity;BMP_temperature;BMP_pressure;BME280_temperature;BME280_humidity;BME280_pressure;Samples;Min_cycle;Max_cycle;Signal;HPM_P1;HPM_P2
2023/05/15 00:00:59;;;;;;;11.45;7.55;;;8.80;99.90;;;;;;5105130;28;20024;-51
2023/05/15 00:03:26;;;;;;;11.68;7.78;;;8.80;99.90;;;;;;5085064;28;20416;-51
2023/05/15 00:05:51;;;;;;;12.38;7.65;;;8.70;99.50;;;;;;5091088;28;20522;-48
2023/05/15 00:08:17;;;;;;;10.27;6.72;;;8.70;99.30;;;;;;5091539;28;20056;-51
2023/05/15 00:10:43;;;;;;;9.65;7.50;;;8.70;99.00;;;;;;5105895;28;20088;-52
2023/05/15 00:13:08;;;;;;;8.40;7.03;;;8.60;99.80;;;;;;5095734;28;20058;-52
2023/05/15 00:15:34;;;;;;;12.45;7.75;;;8.60;99.90;;;;;;5087039;28;20115;-52
2023/05/15 00:17:59;;;;;;;11.85;8.68;;;8.60;99.90;;;;;;5103063;28;20456;-49
2023/05/15 00:20:25;;;;;;;10.00;7.82;;;8.60;99.90;;;;;;5087728;28;20121;-50
2023/05/15 00:22:51;;;;;;;8.95;7.50;;;8.50;99.90;;;;;;5105255;28;20077;-48
2023/05/15 00:25:18;;;;;;;13.40;7.53;;;8.50;99.90;;;;;;5086308;28;20097;-48
2023/05/15 00:27:44;;;;;;;10.73;7.65;;;8.50;99.90;;;;;;5092868;28;20023;-47
2023/05/15 00:30:10;;;;;;;10.60;8.30;;;8.40;99.90;;;;;;5106301;28;20057;-50
2023/05/15 00:32:35;;;;;;;10.85;8.27;;;8.40;99.90;;;;;;5088628;28;20039;-47
2023/05/15 00:35:01;;;;;;;10.60;7.55;;;8.40;99.90;;;;;;5103307;28;20135;-49
2023/05/15 00:37:26;;;;;;;10.35;7.10;;;8.30;99.90;;;;;;5103324;28;20403;-50
2023/05/15 00:39:52;;;;;;;9.68;7.50;;;8.30;99.90;;;;;;5106366;28;20342;-50
2023/05/15 00:42:18;;;;;;;9.63;7.43;;;8.30;99.90;;;;;;5083128;28;20028;-53
2023/05/15 00:44:44;;;;;;;11.50;7.45;;;8.30;99.90;;;;;;5095530;28;20052;-52
2023/05/15 00:47:11;;;;;;;9.48;7.22;;;8.30;99.90;;;;;;5087508;28;20050;-48
2023/05/15 00:49:36;;;;;;;7.82;7.03;;;8.20;99.90;;;;;;5108645;28;20035;-48
2023/05/15 00:52:04;;;;;;;9.70;7.03;;;8.20;99.90;;;;;;5091222;28;20028;-46
2023/05/15 00:54:29;;;;;;;10.57;7.40;;;8.20;99.90;;;;;;5109201;28;20027;-49
2023/05/15 00:56:59;;;;;;;10.18;7.57;;;8.20;99.90;;;;;;5090445;28;20042;-51
2023/05/15 00:59:29;;;;;;;10.23;6.28;;;8.20;99.90;;;;;;5109057;28;20031;-51
2023/05/15 01:01:54;;;;;;;12.43;7.53;;;8.20;99.90;;;;;;5089951;28;20036;-52
2023/05/15 01:04:20;;;;;;;8.65;7.57;;;8.10;99.90;;;;;;5107042;28;20498;-48
2023/05/15 01:06:47;;;;;;;9.68;7.72;;;8.10;99.90;;;;;;5102785;28;20156;-49
2023/05/15 01:09:14;;;;;;;8.43;7.13;;;8.10;99.90;;;;;;5091920;28;20104;-52
2023/05/15 01:11:41;;;;;;;9.60;7.43;;;8.10;99.90;;;;;;5109090;28;20510;-50
2023/05/15 01:14:07;;;;;;;10.32;7.45;;;8.00;99.90;;;;;;5090846;28;20024;-52
2023/05/15 01:16:34;;;;;;;8.27;7.03;;;8.00;99.90;;;;;;5109012;28;20051;-52
2023/05/15 01:19:00;;;;;;;9.15;7.45;;;8.00;99.90;;;;;;5090960;28;20076;-47
2023/05/15 01:21:45;;;;;;;9.77;8.10;;;8.00;99.90;;;;;;5112601;28;20038;-51
2023/05/15 01:24:38;;;;;;;11.85;7.90;;;7.90;99.90;;;;;;5079231;28;20487;-47
2023/05/15 01:27:27;;;;;;;10.13;8.32;;;7.90;99.90;;;;;;5112489;28;20530;-53
2023/05/15 01:30:10;;;;;;;10.15;7.88;;;7.80;99.90;;;;;;5090981;28;20024;-47
2023/05/15 01:33:03;;;;;;;10.23;7.85;;;7.80;99.90;;;;;;5071809;28;20025;-49
2023/05/15 01:35:42;;;;;;;12.52;8.00;;;7.80;99.90;;;;;;5085666;28;20093;-49
2023/05/15 01:38:20;;;;;;;10.65;8.75;;;7.80;99.90;;;;;;5071800;28;20138;-49
2023/05/15 01:40:52;;;;;;;11.35;8.02;;;7.70;99.90;;;;;;5091121;28;20481;-52
2023/05/15 01:43:23;;;;;;;7.35;6.20;;;7.70;99.90;;;;;;5071565;28;20020;-46
2023/05/15 01:45:48;;;;;;;9.07;6.97;;;7.70;99.90;;;;;;5087866;28;20040;-48
2023/05/15 01:48:16;;;;;;;9.75;7.40;;;7.70;99.90;;;;;;5111392;28;20031;-51
2023/05/15 01:50:44;;;;;;;11.18;7.43;;;7.60;99.90;;;;;;5090094;28;20028;-50
2023/05/15 01:53:11;;;;;;;11.15;7.93;;;7.60;99.90;;;;;;5111526;28;20121;-50
2023/05/15 01:55:38;;;;;;;9.55;7.55;;;7.60;99.90;;;;;;5090317;28;20028;-49
2023/05/15 01:58:04;;;;;;;9.43;8.18;;;7.50;99.90;;;;;;5111275;28;20031;-48
2023/05/15 02:00:32;;;;;;;9.55;7.47;;;7.50;99.90;;;;;;5090180;28;20495;-47
2023/05/15 02:02:58;;;;;;;7.72;6.80;;;7.50;99.90;;;;;;5111573;28;20050;-50
2023/05/15 02:05:25;;;;;;;11.18;8.52;;;7.40;99.90;;;;;;5094686;28;20035;-48
2023/05/15 02:07:51;;;;;;;11.27;8.02;;;7.40;99.90;;;;;;5091728;27;20407;-52
2023/05/15 02:10:18;;;;;;;10.20;6.88;;;7.40;99.90;;;;;;5095322;28;20032;-49
2023/05/15 02:12:44;;;;;;;11.18;8.82;;;7.40;99.90;;;;;;5111039;28;20032;-52
2023/05/15 02:15:10;;;;;;;8.98;7.03;;;7.40;99.90;;;;;;5089874;27;20510;-52
2023/05/15 02:17:37;;;;;;;8.85;7.15;;;7.30;99.90;;;;;;5110900;28;20042;-48
2023/05/15 02:20:06;;;;;;;9.00;7.32;;;7.30;99.90;;;;;;5089967;28;20030;-47
2023/05/15 02:22:32;;;;;;;9.10;6.93;;;7.30;99.90;;;;;;5111385;28;20030;-51
2023/05/15 02:24:57;;;;;;;9.18;8.02;;;7.30;99.90;;;;;;5090050;28;20492;-50
2023/05/15 02:27:27;;;;;;;10.98;8.07;;;7.30;99.90;;;;;;5111679;28;20031;-48
2023/05/15 02:30:17;;;;;;;10.52;8.20;;;7.30;99.90;;;;;;5099631;27;20038;-50
2023/05/15 02:32:52;;;;;;;7.60;6.50;;;7.20;99.90;;;;;;5070859;28;20036;-51
2023/05/15 02:35:36;;;;;;;12.05;8.13;;;7.20;99.90;;;;;;5082936;28;20484;-49
2023/05/15 02:38:10;;;;;;;10.43;7.63;;;7.20;99.90;;;;;;5070595;28;20047;-48
2023/05/15 02:40:36;;;;;;;9.70;7.70;;;7.30;99.90;;;;;;5085395;28;20038;-47
2023/05/15 02:43:03;;;;;;;10.77;8.10;;;7.30;99.90;;;;;;5095890;28;20211;-49
2023/05/15 02:45:30;;;;;;;11.02;8.30;;;7.30;99.90;;;;;;5102429;28;20032;-49
2023/05/15 02:47:56;;;;;;;9.57;7.65;;;7.30;99.90;;;;;;5090733;28;20432;-48
2023/05/15 02:50:22;;;;;;;11.32;7.70;;;7.30;99.90;;;;;;5108146;28;20506;-48
2023/05/15 02:52:47;;;;;;;8.77;7.22;;;7.30;99.90;;;;;;5111120;28;20016;-52
2023/05/15 02:55:13;;;;;;;12.05;8.40;;;7.30;99.90;;;;;;5091267;28;20028;-51
2023/05/15 02:57:38;;;;;;;11.82;8.05;;;7.30;99.90;;;;;;5111112;28;20184;-48
2023/05/15 03:00:07;;;;;;;11.95;7.88;;;7.30;99.90;;;;;;5089287;28;20073;-49
2023/05/15 03:02:33;;;;;;;11.68;8.45;;;7.30;99.90;;;;;;5090210;28;20028;-52
2023/05/15 03:04:58;;;;;;;12.88;9.23;;;7.30;99.90;;;;;;5104290;28;20069;-51
2023/05/15 03:07:24;;;;;;;10.15;8.32;;;7.30;99.90;;;;;;5087952;28;20020;-53
2023/05/15 03:09:50;;;;;;;12.32;7.38;;;7.30;99.90;;;;;;5110098;28;20028;-54
2023/05/15 03:12:15;;;;;;;9.32;7.05;;;7.20;99.90;;;;;;5088841;28;20035;-51
2023/05/15 03:14:41;;;;;;;10.95;8.30;;;7.20;99.90;;;;;;5109732;28;20452;-50
2023/05/15 03:17:06;;;;;;;10.52;7.82;;;7.20;99.90;;;;;;5088432;28;20036;-53
2023/05/15 03:19:32;;;;;;;8.60;6.93;;;7.20;99.90;;;;;;5090138;28;20067;-49
2023/05/15 03:21:57;;;;;;;11.70;8.45;;;7.20;99.90;;;;;;5091219;28;20158;-51
2023/05/15 03:24:23;;;;;;;10.00;8.05;;;7.20;99.90;;;;;;5109754;28;20271;-49
2023/05/15 03:26:48;;;;;;;14.40;8.90;;;7.20;99.90;;;;;;5088496;28;20090;-52
2023/05/15 03:29:14;;;;;;;12.43;8.07;;;7.20;99.90;;;;;;5109626;28;20108;-51
2023/05/15 03:31:39;;;;;;;10.25;7.57;;;7.30;99.90;;;;;;5088703;28;20032;-51
2023/05/15 03:34:05;;;;;;;15.75;7.97;;;7.30;99.90;;;;;;5109550;28;20046;-47
2023/05/15 03:36:30;;;;;;;8.20;7.25;;;7.30;99.90;;;;;;5088754;28;20036;-52
2023/05/15 03:38:56;;;;;;;9.63;7.38;;;7.30;99.90;;;;;;5109127;28;20063;-51
2023/05/15 03:41:21;;;;;;;10.48;7.63;;;7.30;99.90;;;;;;5088321;28;20062;-53
2023/05/15 03:43:47;;;;;;;10.60;6.38;;;7.40;99.90;;;;;;5088688;28;20116;-48
2023/05/15 03:46:12;;;;;;;11.40;7.47;;;7.40;99.90;;;;;;5107969;28;20039;-49
2023/05/15 03:48:38;;;;;;;9.70;7.80;;;7.40;99.90;;;;;;5088497;28;20028;-50
2023/05/15 03:51:03;;;;;;;11.60;8.10;;;7.40;99.90;;;;;;5108879;28;20594;-50
2023/05/15 03:53:29;;;;;;;9.70;8.27;;;7.40;99.90;;;;;;5088385;28;20051;-47
2023/05/15 03:55:55;;;;;;;11.30;8.45;;;7.50;99.90;;;;;;5109058;28;20031;-50
2023/05/15 03:58:20;;;;;;;10.07;8.48;;;7.60;99.90;;;;;;5088227;28;20097;-52
2023/05/15 04:00:46;;;;;;;12.38;8.25;;;7.60;99.90;;;;;;5109105;28;20039;-48
2023/05/15 04:03:11;;;;;;;9.05;7.53;;;7.70;99.90;;;;;;5087961;28;20566;-50
2023/05/15 04:05:37;;;;;;;10.52;8.60;;;7.80;99.90;;;;;;5093801;28;20035;-47
2023/05/15 04:08:03;;;;;;;10.30;8.38;;;7.80;99.90;;;;;;5094500;28;20028;-53
2023/05/15 04:10:28;;;;;;;10.00;8.00;;;7.90;99.90;;;;;;5109161;28;20423;-52
2023/05/15 04:12:54;;;;;;;8.35;6.90;;;8.00;99.90;;;;;;5087960;28;20066;-49
2023/05/15 04:15:21;;;;;;;10.13;8.50;;;8.10;99.90;;;;;;5107462;28;20031;-48
2023/05/15 04:17:49;;;;;;;20.30;9.07;;;8.30;99.90;;;;;;5097874;28;20551;-49
2023/05/15 04:20:17;;;;;;;9.10;7.70;;;8.40;99.90;;;;;;5089396;28;20020;-51
2023/05/15 04:22:44;;;;;;;11.13;8.23;;;8.60;99.90;;;;;;5097608;28;20027;-46
2023/05/15 04:25:10;;;;;;;9.73;7.28;;;8.80;99.90;;;;;;5104730;28;20110;-49
2023/05/15 04:27:36;;;;;;;9.20;7.32;;;9.00;99.90;;;;;;5087108;28;20081;-51
2023/05/15 04:30:07;;;;;;;9.60;7.30;;;9.20;99.90;;;;;;5108782;28;20178;-48
2023/05/15 04:32:33;;;;;;;8.93;7.28;;;9.30;99.90;;;;;;5074028;28;20039;-50
2023/05/15 04:35:00;;;;;;;10.73;7.90;;;9.40;99.90;;;;;;5108560;28;20418;-54
2023/05/15 04:37:26;;;;;;;10.10;7.82;;;9.50;99.90;;;;;;5067855;28;20055;-52
2023/05/15 04:39:51;;;;;;;8.07;6.53;;;9.50;99.90;;;;;;5107936;28;20465;-54
2023/05/15 04:42:17;;;;;;;7.80;6.97;;;9.70;99.90;;;;;;5087587;28;20099;-52
2023/05/15 04:44:43;;;;;;;8.05;6.75;;;9.70;99.90;;;;;;5108713;28;20039;-54
2023/05/15 04:47:10;;;;;;;10.13;7.07;;;9.80;99.90;;;;;;5087472;28;20028;-61
2023/05/15 04:49:35;;;;;;;7.90;6.88;;;9.80;99.90;;;;;;5108862;28;20031;-63
2023/05/15 04:52:01;;;;;;;9.70;7.00;;;9.90;99.90;;;;;;5087035;28;20408;-57
2023/05/15 04:54:26;;;;;;;10.73;7.60;;;9.90;99.90;;;;;;5110309;28;20039;-58
2023/05/15 04:56:52;;;;;;;9.57;7.22;;;10.00;99.90;;;;;;5090105;28;20118;-59
2023/05/15 04:59:18;;;;;;;6.72;6.03;;;10.10;99.90;;;;;;5091114;28;20077;-56
2023/05/15 05:01:44;;;;;;;8.57;7.18;;;10.10;99.90;;;;;;5112424;28;20051;-55
2023/05/15 05:04:09;;;;;;;8.25;6.68;;;10.10;99.90;;;;;;5091161;28;20594;-57
2023/05/15 05:06:35;;;;;;;9.55;7.80;;;10.10;99.90;;;;;;5106755;28;20036;-57
2023/05/15 05:09:00;;;;;;;9.80;6.30;;;10.10;99.90;;;;;;5091175;28;20073;-57
2023/05/15 05:11:26;;;;;;;8.10;6.82;;;10.20;99.90;;;;;;5111981;28;20035;-57
2023/05/15 05:13:51;;;;;;;9.88;8.55;;;10.20;99.90;;;;;;5090965;28;20044;-54
2023/05/15 05:16:17;;;;;;;8.85;7.60;;;10.30;99.90;;;;;;5111808;28;20522;-57
2023/05/15 05:18:42;;;;;;;8.07;7.00;;;10.30;99.90;;;;;;5089648;28;20097;-56
2023/05/15 05:21:08;;;;;;;7.65;6.50;;;10.40;99.90;;;;;;5111828;28;20035;-57
2023/05/15 05:23:33;;;;;;;11.55;6.88;;;10.50;99.90;;;;;;5078448;28;20095;-56
2023/05/15 05:25:59;;;;;;;6.80;6.15;;;10.60;99.90;;;;;;5100535;28;20047;-56
2023/05/15 05:28:25;;;;;;;10.50;8.95;;;10.60;99.90;;;;;;5090850;28;20032;-55
2023/05/15 05:30:50;;;;;;;10.13;7.57;;;10.70;99.90;;;;;;5111490;28;20031;-56
2023/05/15 05:33:16;;;;;;;10.25;7.70;;;10.70;99.90;;;;;;5100717;28;20036;-57
2023/05/15 05:35:41;;;;;;;8.88;7.15;;;10.80;99.90;;;;;;5092337;28;20079;-57
2023/05/15 05:38:07;;;;;;;14.32;7.95;;;10.80;99.90;;;;;;5108106;28;20028;-57
2023/05/15 05:40:32;;;;;;;9.00;7.35;;;10.90;99.90;;;;;;5092342;28;20054;-57
2023/05/15 05:43:01;;;;;;;11.05;7.00;;;11.00;99.90;;;;;;5097322;28;20028;-57
2023/05/15 05:45:27;;;;;;;9.15;7.10;;;11.10;99.90;;;;;;5111074;28;20035;-54
2023/05/15 05:47:54;;;;;;;7.22;6.47;;;11.10;99.90;;;;;;5101087;28;20054;-56
2023/05/15 05:50:20;;;;;;;9.40;6.65;;;11.10;99.90;;;;;;5091753;28;20038;-50
2023/05/15 05:52:46;;;;;;;10.95;8.02;;;11.10;99.90;;;;;;5109113;28;20390;-54
2023/05/15 05:55:11;;;;;;;12.30;8.10;;;11.20;99.90;;;;;;5091899;28;20036;-51
2023/05/15 05:57:37;;;;;;;14.55;8.98;;;11.20;99.90;;;;;;5103256;28;20711;-51
2023/05/15 06:00:06;;;;;;;12.45;8.13;;;11.30;99.90;;;;;;5097931;28;20063;-50
2023/05/15 06:02:31;;;;;;;10.95;9.25;;;11.40;99.90;;;;;;5087936;28;20085;-53
2023/05/15 06:04:57;;;;;;;10.75;8.23;;;11.40;99.90;;;;;;5105842;28;20028;-52
2023/05/15 06:07:22;;;;;;;9.73;7.40;;;11.50;99.90;;;;;;5100073;28;20172;-51
2023/05/15 06:09:48;;;;;;;7.57;6.75;;;11.60;99.90;;;;;;5090269;28;20024;-53
2023/05/15 06:12:13;;;;;;;7.32;6.50;;;11.70;99.90;;;;;;5087660;28;20071;-51
2023/05/15 06:14:39;;;;;;;11.75;6.85;;;11.80;99.90;;;;;;5109588;28;20035;-48
2023/05/15 06:17:04;;;;;;;9.65;7.50;;;11.90;99.90;;;;;;5088425;28;20028;-48
2023/05/15 06:19:30;;;;;;;10.20;6.88;;;12.10;99.90;;;;;;5109438;28;20024;-49
2023/05/15 06:21:56;;;;;;;8.13;6.53;;;12.20;99.90;;;;;;5088749;28;20153;-51
2023/05/15 06:24:21;;;;;;;8.18;6.05;;;12.40;99.90;;;;;;5108907;28;20110;-52
2023/05/15 06:26:46;;;;;;;13.13;5.95;;;12.70;99.90;;;;;;5089058;28;20058;-51
2023/05/15 06:29:12;;;;;;;9.93;6.10;;;12.90;99.90;;;;;;5107136;28;20507;-50
2023/05/15 06:31:37;;;;;;;7.45;6.05;;;13.10;99.90;;;;;;5107385;28;20080;-48
2023/05/15 06:34:03;;;;;;;8.63;5.78;;;13.30;99.90;;;;;;5090076;28;20036;-53
2023/05/15 06:36:29;;;;;;;7.25;6.43;;;13.50;99.90;;;;;;5106831;28;20089;-49
2023/05/15 06:38:54;;;;;;;7.97;5.60;;;13.60;98.90;;;;;;5110008;28;20098;-50
2023/05/15 06:41:20;;;;;;;9.73;6.30;;;13.70;98.70;;;;;;5094024;28;20055;-49
2023/05/15 06:43:45;;;;;;;10.75;6.00;;;13.80;96.80;;;;;;5096834;28;20026;-52
2023/05/15 06:46:11;;;;;;;8.30;6.65;;;13.90;96.00;;;;;;5089812;28;20414;-54
2023/05/15 06:48:36;;;;;;;9.77;6.90;;;13.90;94.90;;;;;;5106756;28;20027;-50
2023/05/15 06:51:02;;;;;;;7.55;6.25;;;14.00;95.90;;;;;;5089597;28;20032;-52
2023/05/15 06:53:28;;;;;;;10.02;7.22;;;14.10;96.20;;;;;;5107086;28;20047;-45
2023/05/15 06:55:54;;;;;;;9.02;6.13;;;14.20;95.60;;;;;;5108204;28;20053;-45
2023/05/15 06:58:19;;;;;;;7.72;6.18;;;14.30;95.90;;;;;;5093389;28;20110;-50
2023/05/15 07:00:45;;;;;;;6.63;5.95;;;14.40;95.90;;;;;;5109422;28;20528;-49
2023/05/15 07:03:13;;;;;;;7.50;5.57;;;14.60;95.40;;;;;;5092047;28;20597;-50
2023/05/15 07:05:38;;;;;;;7.70;5.18;;;14.80;95.00;;;;;;5093684;28;20442;-48
2023/05/15 07:08:04;;;;;;;8.27;5.18;;;15.10;94.50;;;;;;5105663;28;20032;-51
2023/05/15 07:10:30;;;;;;;5.53;5.03;;;15.20;93.40;;;;;;5100579;28;20382;-48
2023/05/15 07:12:55;;;;;;;8.70;6.28;;;15.40;92.80;;;;;;5088216;28;20040;-47
2023/05/15 07:15:21;;;;;;;5.20;4.70;;;15.50;92.80;;;;;;5108992;28;20105;-48
2023/05/15 07:17:46;;;;;;;11.55;5.13;;;15.70;92.60;;;;;;5086496;28;20027;-47
2023/05/15 07:20:12;;;;;;;5.22;4.72;;;15.70;91.50;;;;;;5108929;28;20050;-47
2023/05/15 07:22:38;;;;;;;9.52;5.35;;;15.80;90.80;;;;;;5098448;28;20024;-51
2023/05/15 07:25:05;;;;;;;5.75;4.85;;;15.90;90.40;;;;;;5091339;28;20089;-46
2023/05/15 07:27:30;;;;;;;6.30;4.97;;;15.90;90.40;;;;;;5107720;28;20228;-47
2023/05/15 07:29:56;;;;;;;5.63;5.03;;;16.00;90.40;;;;;;5090019;28;20118;-51
2023/05/15 07:32:21;;;;;;;5.18;4.68;;;16.00;90.10;;;;;;5106681;28;20039;-49
2023/05/15 07:34:47;;;;;;;5.20;4.68;;;16.10;89.30;;;;;;5090058;28;20024;-48
2023/05/15 07:37:12;;;;;;;4.75;4.22;;;16.20;88.40;;;;;;5106563;28;20046;-46
2023/05/15 07:39:38;;;;;;;7.22;4.55;;;16.30;87.30;;;;;;5109649;28;20091;-47
2023/05/15 07:42:03;;;;;;;5.15;4.65;;;16.40;85.80;;;;;;5093036;28;20028;-51
2023/05/15 07:44:29;;;;;;;4.35;3.75;;;16.50;83.30;;;;;;5109275;28;20027;-48
2023/05/15 07:46:55;;;;;;;4.90;4.32;;;16.50;81.80;;;;;;5091853;28;20414;-47
2023/05/15 07:49:21;;;;;;;7.65;4.60;;;16.60;82.00;;;;;;5109317;28;20023;-48
2023/05/15 07:51:46;;;;;;;4.10;3.70;;;16.70;81.40;;;;;;5090765;28;20035;-45
2023/05/15 07:54:12;;;;;;;4.68;4.20;;;16.90;80.20;;;;;;5109213;28;20487;-50
2023/05/15 07:56:37;;;;;;;4.57;4.18;;;17.00;79.10;;;;;;5089421;28;20051;-49
2023/05/15 07:59:03;;;;;;;4.85;3.67;;;17.10;78.50;;;;;;5109145;28;20031;-46
2023/05/15 08:01:28;;;;;;;5.05;4.50;;;17.20;77.50;;;;;;5087882;28;20032;-48
2023/05/15 08:03:54;;;;;;;5.57;3.75;;;17.30;76.90;;;;;;5109252;28;20023;-47
2023/05/15 08:06:19;;;;;;;4.70;3.40;;;17.30;76.60;;;;;;5082622;28;20044;-51
2023/05/15 08:08:45;;;;;;;4.60;3.85;;;17.40;77.10;;;;;;5106793;28;20044;-53
2023/05/15 08:11:10;;;;;;;8.65;4.53;;;17.40;77.00;;;;;;5089132;28;20054;-48
2023/05/15 08:13:36;;;;;;;9.02;5.20;;;17.40;76.90;;;;;;5088262;28;20077;-49
2023/05/15 08:16:02;;;;;;;5.80;4.55;;;17.40;76.70;;;;;;5108319;28;20076;-52
2023/05/15 08:18:28;;;;;;;5.90;4.32;;;17.50;77.10;;;;;;5087215;28;20416;-49
2023/05/15 08:20:53;;;;;;;6.78;4.88;;;17.50;76.60;;;;;;5108276;28;20032;-50
2023/05/15 08:23:19;;;;;;;7.15;5.03;;;17.50;75.50;;;;;;5087109;28;20319;-48
2023/05/15 08:25:44;;;;;;;6.40;4.32;;;17.60;75.90;;;;;;5100535;28;20051;-52
2023/05/15 08:28:10;;;;;;;8.15;4.47;;;17.60;75.60;;;;;;5102761;28;20035;-47
2023/05/15 08:30:36;;;;;;;9.45;4.80;;;17.70;75.20;;;;;;5093396;28;20028;-49
2023/05/15 08:33:01;;;;;;;5.75;4.60;;;17.80;73.50;;;;;;5096979;28;20031;-46
2023/05/15 08:35:26;;;;;;;6.43;4.55;;;17.80;73.50;;;;;;5112373;28;20031;-47
2023/05/15 08:37:52;;;;;;;4.38;3.97;;;17.90;71.60;;;;;;5091310;28;20084;-46
2023/05/15 08:40:18;;;;;;;7.22;4.72;;;18.00;71.20;;;;;;5112136;28;20368;-50
2023/05/15 08:42:47;;;;;;;8.57;4.13;;;18.10;71.10;;;;;;5091423;28;20058;-48
2023/05/15 08:45:13;;;;;;;7.97;4.95;;;18.30;70.20;;;;;;5112427;28;20537;-47
2023/05/15 08:47:40;;;;;;;5.88;4.50;;;18.40;68.80;;;;;;5101432;28;20036;-47
2023/05/15 08:50:13;;;;;;;5.35;4.63;;;18.50;68.30;;;;;;5093082;28;20488;-48
2023/05/15 08:52:46;;;;;;;8.15;5.35;;;18.60;66.90;;;;;;5091315;28;20475;-46
2023/05/15 08:55:13;;;;;;;7.28;5.53;;;18.70;66.40;;;;;;5072184;28;20029;-47
2023/05/15 08:57:40;;;;;;;9.07;4.80;;;18.80;65.30;;;;;;5109966;28;20032;-46
2023/05/15 09:00:07;;;;;;;5.88;4.38;;;18.80;64.50;;;;;;5092802;27;20099;-49
2023/05/15 09:02:35;;;;;;;10.45;4.45;;;18.90;63.90;;;;;;5110362;28;20442;-48
2023/05/15 09:05:01;;;;;;;5.55;3.90;;;18.90;63.50;;;;;;5090631;28;20387;-50
2023/05/15 09:07:28;;;;;;;7.88;4.18;;;19.10;63.50;;;;;;5110630;28;20043;-48
2023/05/15 09:09:55;;;;;;;7.63;4.20;;;19.20;63.10;;;;;;5091111;28;20369;-45
2023/05/15 09:12:24;;;;;;;7.13;4.55;;;19.20;62.30;;;;;;5109994;28;20055;-46
2023/05/15 09:14:49;;;;;;;5.88;4.28;;;19.20;60.80;;;;;;5092162;28;20503;-46
2023/05/15 09:17:15;;;;;;;6.63;4.55;;;19.20;60.60;;;;;;5109742;28;20031;-47
2023/05/15 09:19:42;;;;;;;6.05;3.92;;;19.20;60.00;;;;;;5112210;27;20572;-45
2023/05/15 09:22:23;;;;;;;4.82;4.03;;;19.30;59.50;;;;;;5096418;28;20053;-47
2023/05/15 09:24:51;;;;;;;4.50;3.85;;;19.20;58.10;;;;;;5111999;28;20208;-50
2023/05/15 09:27:18;;;;;;;4.65;3.97;;;19.20;59.80;;;;;;5084677;28;20053;-50
2023/05/15 09:29:44;;;;;;;3.97;3.67;;;19.20;58.10;;;;;;5112352;27;20015;-53
2023/05/15 09:32:12;;;;;;;4.40;3.33;;;19.20;58.70;;;;;;5096285;28;20039;-48
2023/05/15 09:34:42;;;;;;;4.78;3.90;;;19.20;58.60;;;;;;5112239;28;20023;-48
2023/05/15 09:37:12;;;;;;;8.10;4.05;;;19.20;57.30;;;;;;5095738;28;20457;-49
2023/05/15 09:39:41;;;;;;;6.35;4.32;;;19.20;57.70;;;;;;5111602;28;20425;-45
2023/05/15 09:42:11;;;;;;;6.65;3.83;;;19.30;57.70;;;;;;5095505;28;20027;-48
2023/05/15 09:44:44;;;;;;;5.20;3.90;;;19.40;57.70;;;;;;5111757;28;20020;-49
2023/05/15 09:47:12;;;;;;;6.40;4.55;;;19.40;57.40;;;;;;5095505;28;20040;-45
2023/05/15 09:49:37;;;;;;;7.45;3.90;;;19.50;57.30;;;;;;5111879;28;20031;-47
2023/05/15 09:52:07;;;;;;;6.82;4.00;;;19.50;54.70;;;;;;5095324;28;20403;-49
2023/05/15 09:54:34;;;;;;;5.70;3.97;;;19.50;55.50;;;;;;5111565;28;20027;-46
2023/05/15 09:57:08;;;;;;;6.95;3.92;;;19.60;55.50;;;;;;5094644;27;20427;-49
2023/05/15 09:59:33;;;;;;;6.43;4.45;;;19.60;54.50;;;;;;5111845;28;20141;-49
2023/05/15 10:01:59;;;;;;;4.43;3.58;;;19.60;53.80;;;;;;5094324;28;20209;-50
2023/05/15 10:04:24;;;;;;;4.47;3.92;;;19.60;54.20;;;;;;5111516;28;20050;-48
2023/05/15 10:06:51;;;;;;;6.50;3.95;;;19.50;53.60;;;;;;5089484;28;20110;-45
2023/05/15 10:09:16;;;;;;;5.53;3.70;;;19.50;53.70;;;;;;5109835;28;20708;-48
2023/05/15 10:11:49;;;;;;;6.10;3.88;;;19.40;52.40;;;;;;5092055;28;20040;-49
2023/05/15 10:14:16;;;;;;;5.03;3.85;;;19.40;50.90;;;;;;5111412;28;20364;-49
2023/05/15 10:16:42;;;;;;;3.97;3.67;;;19.50;51.10;;;;;;5091344;28;20025;-49
2023/05/15 10:19:10;;;;;;;7.28;4.18;;;19.60;51.10;;;;;;5109203;28;20026;-49
2023/05/15 10:21:40;;;;;;;4.65;3.78;;;19.70;47.90;;;;;;5095278;28;20030;-51
2023/05/15 10:24:07;;;;;;;5.55;3.88;;;19.70;48.60;;;;;;5074729;28;20082;-48
2023/05/15 10:26:37;;;;;;;6.55;4.50;;;19.70;47.90;;;;;;5087732;28;20097;-46
2023/05/15 10:29:06;;;;;;;6.75;4.60;;;19.70;46.60;;;;;;5108746;28;20470;-53
2023/05/15 10:31:32;;;;;;;4.50;4.10;;;19.70;44.00;;;;;;5086393;28;20468;-49
2023/05/15 10:33:59;;;;;;;5.78;4.35;;;19.80;46.10;;;;;;5089057;28;20028;-49
2023/05/15 10:36:26;;;;;;;4.55;3.72;;;19.80;45.50;;;;;;5085657;28;20530;-53
2023/05/15 10:38:51;;;;;;;8.88;5.07;;;20.00;45.80;;;;;;5104987;28;20095;-46
2023/05/15 10:41:21;;;;;;;6.50;4.57;;;19.80;40.40;;;;;;5100144;28;20530;-48
2023/05/15 10:43:48;;;;;;;4.40;3.63;;;19.60;41.50;;;;;;5087987;28;20032;-48
2023/05/15 10:46:15;;;;;;;7.95;4.25;;;19.60;44.10;;;;;;5110547;28;20027;-49
2023/05/15 10:48:40;;;;;;;4.93;4.03;;;19.60;44.70;;;;;;5089020;28;20507;-49
2023/05/15 10:51:14;;;;;;;4.93;4.20;;;19.70;44.90;;;;;;5108035;28;20063;-60
2023/05/15 10:53:40;;;;;;;5.25;4.15;;;19.80;44.70;;;;;;5110820;28;20019;-55
2023/05/15 10:56:10;;;;;;;4.30;3.90;;;19.70;42.40;;;;;;5088550;28;20423;-60
2023/05/15 10:58:36;;;;;;;4.60;4.07;;;19.60;44.30;;;;;;5110283;28;20118;-61
2023/05/15 11:01:01;;;;;;;6.82;4.07;;;19.60;43.00;;;;;;5089173;28;20575;-61
2023/05/15 11:03:37;;;;;;;6.25;4.07;;;19.50;44.10;;;;;;5107935;28;20027;-61
2023/05/15 11:06:10;;;;;;;7.05;4.22;;;19.70;42.20;;;;;;5083793;28;20435;-60
2023/05/15 11:08:37;;;;;;;4.32;3.88;;;19.50;43.40;;;;;;5089764;28;20032;-61
2023/05/15 11:11:03;;;;;;;7.20;4.00;;;19.50;44.20;;;;;;5109429;28;20575;-60
2023/05/15 11:14:09;;;;;;;4.88;3.95;;;19.60;44.50;;;;;;5110110;28;20044;-60
2023/05/15 11:16:57;;;;;;;4.03;3.42;;;19.70;42.60;;;;;;5092622;28;20023;-61
2023/05/15 11:19:28;;;;;;;4.43;3.90;;;19.70;42.30;;;;;;5109936;28;20504;-60
2023/05/15 11:22:02;;;;;;;4.97;3.90;;;19.70;43.60;;;;;;5094985;28;20037;-61
2023/05/15 11:24:46;;;;;;;4.32;3.67;;;19.80;42.80;;;;;;5089478;28;20117;-61
2023/05/15 11:27:16;;;;;;;4.05;3.63;;;19.70;41.30;;;;;;5084436;28;20519;-60
2023/05/15 11:30:07;;;;;;;3.78;3.47;;;19.60;39.50;;;;;;5109795;28;20169;-61
2023/05/15 11:32:43;;;;;;;4.55;3.67;;;19.70;41.20;;;;;;5087431;28;20101;-61
2023/05/15 11:35:21;;;;;;;5.57;3.35;;;19.90;41.90;;;;;;5105755;28;20024;-59
2023/05/15 11:37:57;;;;;;;4.72;3.53;;;20.20;41.20;;;;;;5069127;28;20035;-61
2023/05/15 11:40:32;;;;;;;5.35;3.10;;;20.30;40.70;;;;;;5086248;28;20032;-60
2023/05/15 11:43:27;;;;;;;3.60;3.15;;;20.60;39.40;;;;;;5085289;28;20039;-61
2023/05/15 11:46:04;;;;;;;4.35;3.58;;;20.80;38.10;;;;;;5067606;28;20059;-60
2023/05/15 11:48:34;;;;;;;4.55;3.10;;;21.00;37.30;;;;;;5109471;28;20114;-61
2023/05/15 11:51:01;;;;;;;4.78;3.67;;;21.20;37.70;;;;;;5088665;28;20020;-60
2023/05/15 11:53:28;;;;;;;5.25;2.92;;;21.10;33.90;;;;;;5108218;28;20015;-61
2023/05/15 11:55:54;;;;;;;5.72;3.85;;;21.20;36.40;;;;;;5087987;28;20036;-60
2023/05/15 11:58:21;;;;;;;4.93;3.78;;;21.20;35.60;;;;;;5109449;28;20447;-60
2023/05/15 12:00:48;;;;;;;4.80;3.28;;;21.20;34.80;;;;;;5091943;28;20059;-61
2023/05/15 12:03:22;;;;;;;3.70;3.08;;;21.30;34.70;;;;;;5068620;28;20032;-61
2023/05/15 12:05:48;;;;;;;5.00;3.03;;;21.40;34.40;;;;;;5085624;28;20039;-56
2023/05/15 12:08:14;;;;;;;3.45;2.75;;;21.50;34.00;;;;;;5109232;28;20029;-60
2023/05/15 12:10:44;;;;;;;3.28;2.55;;;21.60;34.00;;;;;;5089278;28;20476;-61
2023/05/15 12:13:14;;;;;;;3.58;2.95;;;21.70;30.00;;;;;;5086455;28;20546;-61
2023/05/15 12:15:42;;;;;;;3.92;3.03;;;21.80;32.20;;;;;;5108311;28;20023;-61
2023/05/15 12:18:08;;;;;;;2.92;2.22;;;21.80;30.80;;;;;;5090500;28;20444;-60
2023/05/15 12:20:35;;;;;;;4.45;2.70;;;22.00;30.10;;;;;;5106854;28;20023;-61
2023/05/15 12:23:02;;;;;;;3.45;2.30;;;22.20;28.60;;;;;;5109467;28;20051;-62
2023/05/15 12:25:29;;;;;;;2.40;2.03;;;22.40;29.60;;;;;;5090394;28;20042;-61
2023/05/15 12:27:55;;;;;;;2.78;2.35;;;22.60;28.50;;;;;;5088897;28;20376;-62
2023/05/15 12:30:21;;;;;;;3.13;2.13;;;22.60;25.40;;;;;;5086283;28;20063;-59
2023/05/15 12:32:47;;;;;;;2.55;2.33;;;22.50;26.40;;;;;;5086915;28;20032;-59
2023/05/15 12:35:12;;;;;;;5.60;2.55;;;22.30;26.30;;;;;;5085376;28;20062;-59
2023/05/15 12:37:38;;;;;;;3.03;2.35;;;22.20;26.20;;;;;;5105562;28;20487;-59
2023/05/15 12:40:09;;;;;;;3.05;2.40;;;22.20;26.10;;;;;;5085620;28;20028;-59
2023/05/15 12:42:42;;;;;;;3.60;2.42;;;22.40;24.30;;;;;;5067208;28;20036;-59
2023/05/15 12:45:15;;;;;;;3.92;2.38;;;22.40;25.30;;;;;;5080718;28;20302;-58
2023/05/15 12:47:42;;;;;;;4.18;2.17;;;22.20;25.00;;;;;;5067035;28;20029;-59
2023/05/15 12:50:12;;;;;;;3.42;2.83;;;22.10;24.40;;;;;;5090047;28;20382;-59